Time;durP1;ratioP1;P1;durP2;ratioP2;P2;SDS_P1;SDS_P2;PMS_P1;PMS_P2;Temp;Humidity;BMP_temperature;BMP_pressure;BME280_temperature;BME280_humidity;BME280_pressure;Samples;Min_cycle;Max_cycle;Signal;HPM_P1;HPM_P2
2021/04/30 00:01:54;;;;;;;3.87;3.17;;;7.40;1.00;;;11.51;78.42;97583.28;5024904;28;20207;-71
2021/04/30 00:04:20;;;;;;;4.47;3.60;;;7.50;1.00;;;11.27;78.95;97590.19;5021814;28;20204;-71
2021/04/30 00:06:47;;;;;;;4.87;3.57;;;7.50;1.00;;;11.38;77.66;97597.56;5014261;28;20641;-71
2021/04/30 00:09:14;;;;;;;4.77;3.63;;;7.50;1.00;;;11.46;76.96;97591.94;5014958;28;20240;-71
2021/04/30 00:11:41;;;;;;;5.20;3.90;;;7.50;1.00;;;11.56;76.60;97583.44;5017950;28;20234;-71
2021/04/30 00:14:07;;;;;;;5.40;3.73;;;7.50;1.00;;;11.59;75.73;97577.69;5021793;28;20206;-71
2021/04/30 00:16:39;;;;;;;5.20;3.47;;;7.50;1.00;;;11.47;76.09;97577.53;5022638;28;20693;-70
2021/04/30 00:19:06;;;;;;;5.30;3.73;;;7.40;1.00;;;11.40;76.48;97587.47;5013539;28;20290;-71
2021/04/30 00:21:32;;;;;;;5.30;3.67;;;7.40;1.00;;;11.48;78.98;97581.03;5013813;28;20219;-71
2021/04/30 00:23:59;;;;;;;4.70;3.70;;;7.40;1.00;;;11.51;75.85;97583.28;5019671;28;20213;-71
2021/04/30 00:26:27;;;;;;;5.97;3.90;;;7.40;1.00;;;11.31;77.37;97588.75;5017514;28;20226;-71
2021/04/30 00:28:54;;;;;;;6.03;4.20;;;7.40;1.00;;;11.37;76.11;97593.22;5018841;28;20213;-71
2021/04/30 00:31:21;;;;;;;7.10;3.97;;;7.30;1.00;;;11.31;76.43;97591.41;5012208;28;20235;-71
2021/04/30 00:33:47;;;;;;;6.37;4.07;;;7.30;1.00;;;11.34;76.92;97591.00;5023299;28;20199;-70
2021/04/30 00:36:14;;;;;;;5.43;3.57;;;7.40;1.00;;;11.47;76.79;97590.88;5018362;28;20580;-70
2021/04/30 00:38:40;;;;;;;7.23;4.33;;;7.30;1.00;;;11.29;75.84;97601.50;5024168;28;20737;-71
2021/04/30 00:41:07;;;;;;;5.83;3.83;;;7.30;1.00;;;11.38;74.97;97597.56;5024770;28;20229;-70
2021/04/30 00:43:34;;;;;;;6.07;3.60;;;7.30;1.00;;;11.43;75.78;97605.75;5026260;28;20209;-70
2021/04/30 00:46:01;;;;;;;6.20;4.10;;;7.40;1.00;;;11.42;75.71;97601.41;5018055;28;20252;-71
2021/04/30 00:48:27;;;;;;;6.63;4.03;;;7.40;1.00;;;11.51;74.96;97602.00;5020008;28;20210;-71
2021/04/30 00:50:54;;;;;;;5.90;3.77;;;7.40;1.00;;;11.11;76.17;97601.41;5027525;28;20230;-71
2021/04/30 00:53:21;;;;;;;5.67;4.23;;;7.40;1.00;;;11.34;74.33;97604.34;5027132;28;20213;-71
2021/04/30 00:55:47;;;;;;;5.27;4.17;;;7.40;1.00;;;11.44;75.02;97598.53;5018239;28;20206;-71
2021/04/30 00:58:14;;;;;;;6.90;4.07;;;7.40;1.00;;;11.08;74.42;97593.00;5024628;28;20203;-70
2021/04/30 01:00:42;;;;;;;6.50;4.27;;;7.40;1.00;;;11.02;75.79;97596.53;5024397;28;20234;-70
2021/04/30 01:03:09;;;;;;;5.43;4.10;;;7.30;1.00;;;11.16;75.23;97606.91;5023674;28;20213;-71
2021/04/30 01:05:36;;;;;;;7.93;4.17;;;7.20;1.00;;;11.14;74.99;97598.31;5025367;28;20556;-71
2021/04/30 01:08:04;;;;;;;6.53;4.00;;;7.20;1.00;;;11.10;74.82;97606.94;5020694;28;20221;-71
2021/04/30 01:10:31;;;;;;;6.63;4.23;;;;;;;10.83;74.97;97603.59;5029087;28;20234;-70
2021/04/30 01:12:58;;;;;;;6.07;4.40;;;;;;;11.24;73.88;97608.50;5025729;28;20305;-70
2021/04/30 01:15:25;;;;;;;6.37;4.40;;;;;;;11.09;74.38;97603.47;5023606;28;20725;-70
2021/04/30 01:17:53;;;;;;;4.83;4.20;;;;;;;11.11;74.80;97608.59;5026847;28;20206;-70
2021/04/30 01:20:20;;;;;;;6.07;4.30;;;;;;;11.05;73.65;97606.75;5022527;28;20245;-70
2021/04/30 01:22:49;;;;;;;7.47;4.43;;;;;;;11.17;74.33;97608.53;5033532;28;20207;-70
2021/04/30 01:25:18;;;;;;;5.70;4.40;;;;;;;11.13;73.74;97614.53;5035357;28;20205;-71
2021/04/30 01:27:45;;;;;;;6.17;4.27;;;;;;;11.21;72.57;97611.63;5032491;28;20207;-70
2021/04/30 01:30:14;;;;;;;5.97;4.27;;;;;;;11.04;72.54;97618.47;5032837;28;20245;-70
2021/04/30 01:32:41;;;;;;;7.37;4.40;;;;;;;11.03;72.45;97616.84;5032068;28;20211;-70
2021/04/30 01:35:10;;;;;;;7.30;5.13;;;;;;;10.99;72.84;97615.63;5032098;28;20203;-71
2021/04/30 01:37:37;;;;;;;6.27;4.73;;;;;;;11.11;70.59;97606.72;5019204;28;20209;-71
2021/04/30 01:40:12;;;;;;;6.53;4.70;;;;;;;11.26;69.90;97606.47;5022477;28;20222;-71
2021/04/30 01:42:52;;;;;;;8.03;5.13;;;;;;;10.99;70.62;97594.28;5027410;28;20686;-71
2021/04/30 01:45:19;;;;;;;8.20;5.27;;;;;;;11.05;70.59;97599.59;5023877;28;20206;-71
2021/04/30 01:47:46;;;;;;;5.97;4.37;;;;;;;10.97;70.68;97607.84;5030775;28;20241;-71
2021/04/30 01:50:13;;;;;;;7.67;4.60;;;;;;;11.10;71.17;97604.28;5027641;28;20230;-71
2021/04/30 01:52:40;;;;;;;9.03;5.03;;;;;;;10.98;71.59;97606.00;5028860;28;20217;-71
2021/04/30 01:55:09;;;;;;;5.80;4.60;;;;;;;11.19;69.93;97609.16;5024613;28;20740;-71
2021/04/30 01:57:36;;;;;;;6.90;5.03;;;;;;;11.11;69.78;97614.75;5023143;28;20207;-71
2021/04/30 02:00:05;;;;;;;6.83;4.63;;;;;;;11.19;70.36;97616.34;5019563;28;20272;-71
2021/04/30 02:02:44;;;;;;;6.70;4.47;;;;;;;11.05;70.34;97620.13;5018392;28;20215;-71
2021/04/30 02:05:12;;;;;;;7.03;5.07;;;;;;;11.12;70.58;97619.06;5019048;28;20317;-71
2021/04/30 02:07:39;;;;;;;7.50;4.90;;;;;;;11.03;71.33;97616.84;5023253;28;20862;-70
2021/04/30 02:10:11;;;;;;;7.67;4.90;;;;;;;11.04;71.43;97621.16;5023596;28;20291;-71
2021/04/30 02:12:37;;;;;;;8.83;5.67;;;;;;;10.96;72.26;97616.06;5021336;28;20212;-71
2021/04/30 02:15:06;;;;;;;8.27;5.57;;;;;;;10.95;71.81;97615.25;5021700;28;20211;-71
2021/04/30 02:17:32;;;;;;;8.27;5.77;;;;;;;10.88;72.93;97618.19;5021217;28;20214;-71
2021/04/30 02:19:59;;;;;;;9.23;5.33;;;;;;;11.05;73.13;97623.63;5025932;28;20233;-71
2021/04/30 02:22:27;;;;;;;8.13;5.27;;;;;;;10.93;74.71;97630.66;5032748;28;20275;-71
2021/04/30 02:24:54;;;;;;;8.40;5.93;;;;;;;10.84;76.65;97623.94;5015463;28;20214;-71
2021/04/30 02:27:21;;;;;;;8.60;6.13;;;;;;;11.10;79.83;97621.13;5026652;28;20748;-71
2021/04/30 02:29:48;;;;;;;9.00;6.10;;;;;;;11.24;81.14;97620.03;5017696;28;20250;-71
2021/04/30 02:32:15;;;;;;;9.10;6.10;;;;;;;11.13;82.53;97609.19;5026660;28;20202;-71
2021/04/30 02:34:42;;;;;;;10.63;7.20;;;;;;;11.01;83.19;97614.38;5026919;28;20206;-71
2021/04/30 02:37:08;;;;;;;10.07;6.73;;;;;;;11.05;85.77;97602.25;5027856;28;20202;-71
2021/04/30 02:39:35;;;;;;;9.70;7.03;;;;;;;11.11;84.59;97597.94;5024331;28;20201;-71
2021/04/30 02:42:02;;;;;;;10.47;7.20;;;;;;;10.97;84.01;97593.69;5020945;28;20222;-71
2021/04/30 02:44:30;;;;;;;9.93;7.00;;;;;;;10.98;85.73;97596.16;5029128;28;20202;-71
2021/04/30 02:46:57;;;;;;;9.20;6.37;;;;;;;10.86;92.15;97589.00;5025204;28;20678;-71
2021/04/30 02:49:27;;;;;;;11.83;7.20;;;;;;;10.59;97.43;97580.28;5023035;28;20319;-71
2021/04/30 02:51:54;;;;;;;10.37;6.90;;;;;;;10.43;98.13;97586.09;5026742;28;20233;-71
2021/04/30 02:54:21;;;;;;;10.83;7.33;;;;;;;10.53;89.27;97599.81;5023426;28;20690;-71
2021/04/30 02:56:48;;;;;;;9.50;6.77;;;;;;;10.59;87.73;97592.81;5021271;28;20202;-71
2021/04/30 02:59:14;;;;;;;8.73;6.60;;;;;;;10.20;90.50;97580.41;5023073;28;20259;-71
2021/04/30 03:01:42;;;;;;;11.23;7.33;;;;;;;10.44;92.25;97584.25;5019251;28;20693;-71
2021/04/30 03:04:09;;;;;;;11.50;6.73;;;;;;;10.32;96.70;97585.94;5029261;28;20220;-71
2021/04/30 03:06:37;;;;;;;11.93;7.23;;;;;;;10.38;93.94;97594.94;5017971;28;20213;-71
2021/04/30 03:09:04;;;;;;;13.30;8.70;;;;;;;10.41;97.80;97596.16;5018967;28;20288;-71
2021/04/30 03:11:31;;;;;;;13.27;8.97;;;;;;;10.33;100.00;97606.22;5028260;28;20598;-71
2021/04/30 03:13:58;;;;;;;12.40;8.33;;;;;;;10.48;100.00;97600.66;5027361;28;20213;-71
2021/04/30 03:16:25;;;;;;;13.47;8.53;;;;;;;10.27;100.00;97604.41;5025975;28;20201;-72
2021/04/30 03:18:52;;;;;;;13.37;8.87;;;;;;;10.45;100.00;97612.56;5024731;28;20263;-71
2021/04/30 03:21:19;;;;;;;13.23;8.60;;;;;;;10.60;100.00;97611.28;5027187;28;20235;-71
2021/04/30 03:23:46;;;;;;;12.67;8.43;;;;;;;10.64;100.00;97612.50;5024375;28;20682;-71
2021/04/30 03:26:12;;;;;;;15.43;9.57;;;;;;;10.74;100.00;97612.03;5022058;28;20563;-72
2021/04/30 03:28:39;;;;;;;13.53;8.93;;;;;;;10.80;100.00;97601.34;5025691;28;20639;-71
2021/04/30 03:31:06;;;;;;;18.60;11.57;;;;;;;10.64;100.00;97607.16;5014009;28;20283;-71
2021/04/30 03:33:33;;;;;;;12.67;8.30;;;;;;;10.81;100.00;97597.66;5026021;28;20577;-71
2021/04/30 03:36:01;;;;;;;12.07;7.70;;;;;;;10.85;99.66;97582.03;5017285;28;20225;-71
2021/04/30 03:38:28;;;;;;;13.40;8.50;;;;;;;10.81;100.00;97578.16;5028917;28;20202;-71
2021/04/30 03:40:54;;;;;;;10.47;7.53;;;;;;;10.73;98.56;97588.25;5027569;28;20613;-71
2021/04/30 03:43:22;;;;;;;10.87;7.87;;;;;;;10.79;94.94;97596.22;5030052;28;20619;-71
2021/04/30 03:45:50;;;;;;;12.73;8.23;;;;;;;10.82;95.68;97595.81;5024631;28;20202;-71
2021/04/30 03:48:17;;;;;;;11.43;7.13;;;;;;;10.79;97.61;97598.88;5029847;28;20202;-71
2021/04/30 03:50:44;;;;;;;13.00;7.80;;;;;;;10.92;95.99;97596.16;5028109;28;20647;-72
2021/04/30 03:53:12;;;;;;;9.73;6.87;;;;;;;10.77;95.48;97595.63;5025216;28;20248;-71
2021/04/30 03:55:39;;;;;;;13.20;7.70;;;;;;;10.64;96.15;97580.47;5020361;28;20209;-71
2021/04/30 03:58:05;;;;;;;9.70;6.80;;;;;;;10.74;94.00;97577.34;5026553;28;20207;-71
2021/04/30 04:00:32;;;;;;;11.37;6.80;;;;;;;10.77;95.90;97572.44;5017557;28;20218;-71
2021/04/30 04:02:59;;;;;;;9.20;6.30;;;;;;;10.65;87.55;97575.97;5026842;28;20903;-71
2021/04/30 04:05:26;;;;;;;10.20;6.40;;;;;;;10.89;85.07;97591.25;5017772;28;20601;-71
2021/04/30 04:07:53;;;;;;;10.27;6.27;;;;;;;10.83;84.13;97587.59;5017381;28;20214;-71
2021/04/30 04:10:20;;;;;;;9.87;6.20;;;;;;;10.68;87.50;97580.88;5027558;28;20236;-71
2021/04/30 04:12:47;;;;;;;10.03;6.13;;;;;;;10.91;88.23;97583.84;5021222;28;20257;-71
2021/04/30 04:15:16;;;;;;;9.50;6.00;;;;;;;10.87;87.17;97585.31;5023215;28;20202;-71
2021/04/30 04:17:43;;;;;;;10.27;6.23;;;;;;;10.90;83.14;97596.38;5023063;28;20214;-71
2021/04/30 04:20:11;;;;;;;10.73;6.50;;;;;;;11.09;80.42;97595.47;5019878;28;20219;-71
2021/04/30 04:22:38;;;;;;;11.40;6.47;;;;;;;10.82;83.01;97593.13;5021909;28;20209;-72
2021/04/30 04:25:06;;;;;;;9.97;6.30;;;;;;;10.74;86.34;97580.03;5030422;28;20211;-72
2021/04/30 04:27:34;;;;;;;8.07;6.07;;;;;;;10.89;85.12;97586.72;5032723;28;20212;-71
2021/04/30 04:30:01;;;;;;;9.07;6.60;;;;;;;10.84;79.09;97604.41;5035972;28;20225;-71
2021/04/30 04:32:28;;;;;;;10.43;6.60;;;;;;;10.80;78.04;97608.56;5024425;28;20369;-71
2021/04/30 04:34:54;;;;;;;9.73;6.37;;;;;;;10.90;78.68;97603.59;5017361;28;20260;-71
2021/04/30 04:37:21;;;;;;;10.53;6.20;;;;;;;10.97;78.46;97607.84;5015751;28;20210;-72
2021/04/30 04:39:48;;;;;;;9.87;6.40;;;;;;;10.84;79.28;97610.56;5025407;28;20207;-72
2021/04/30 04:42:15;;;;;;;8.87;5.97;;;;;;;10.81;78.15;97600.31;5028347;28;20201;-72
2021/04/30 04:44:42;;;;;;;9.23;6.20;;;;;;;11.10;77.65;97615.78;5025601;28;20211;-71
2021/04/30 04:47:09;;;;;;;9.30;6.50;;;;;;;11.11;79.08;97609.41;5028095;28;20202;-72
2021/04/30 04:49:36;;;;;;;9.37;6.40;;;;;;;11.32;74.29;97624.31;5034841;28;20214;-72
2021/04/30 04:52:03;;;;;;;9.57;6.20;;;;;;;11.38;73.60;97618.94;5023719;28;20249;-72
2021/04/30 04:54:31;;;;;;;11.37;6.80;;;;;;;10.70;81.48;97611.66;5026872;28;20209;-72
2021/04/30 04:56:58;;;;;;;10.40;6.53;;;;;;;10.53;77.55;97621.16;5033211;28;20247;-72
2021/04/30 04:59:25;;;;;;;10.23;6.10;;;;;;;10.94;75.77;97639.47;5036243;28;20211;-72
2021/04/30 05:01:52;;;;;;;9.43;6.50;;;;;;;11.08;74.60;97641.06;5022439;28;20410;-72
2021/04/30 05:04:20;;;;;;;9.43;7.07;;;;;;;10.80;75.48;97638.72;5021896;28;20732;-72
2021/04/30 05:06:47;;;;;;;9.10;6.30;;;;;;;10.93;73.85;97637.03;5022978;28;20576;-72
2021/04/30 05:09:14;;;;;;;11.10;6.80;;;;;;;10.61;75.35;97639.59;5026862;28;20671;-72
2021/04/30 05:11:41;;;;;;;10.73;6.73;;;;;;;10.69;75.58;97630.53;5025664;28;20234;-72
2021/04/30 05:14:08;;;;;;;8.77;6.13;;;;;;;10.68;79.04;97622.78;5026017;28;20210;-72
2021/04/30 05:16:34;;;;;;;10.83;7.13;;;;;;;11.01;74.65;97635.75;5023145;28;20621;-72
2021/04/30 05:19:02;;;;;;;10.13;6.53;;;;;;;11.02;76.58;97637.38;5025644;28;20221;-72
2021/04/30 05:21:29;;;;;;;10.70;6.70;;;;;;;11.51;74.01;97634.06;5020403;28;20584;-72
2021/04/30 05:23:58;;;;;;;10.23;6.70;;;;;;;11.67;72.18;97635.41;5030391;28;20436;-72
2021/04/30 05:26:27;;;;;;;13.50;6.83;;;;;;;11.56;73.39;97637.69;5030546;28;20222;-72
2021/04/30 05:28:54;;;;;;;13.33;8.07;;;;;;;11.30;75.49;97645.03;5025475;28;20580;-72
2021/04/30 05:31:21;;;;;;;12.63;7.33;;;;;;;10.85;78.34;97635.44;5029400;28;20317;-72
2021/04/30 05:33:48;;;;;;;14.00;7.17;;;;;;;10.96;75.54;97642.78;5028101;28;20217;-72
2021/04/30 05:36:15;;;;;;;11.20;6.63;;;;;;;11.02;75.58;97640.06;5025289;28;20206;-70
2021/04/30 05:38:42;;;;;;;12.97;6.63;;;;;;;10.70;77.13;97634.88;5032882;28;20210;-71
2021/04/30 05:41:09;;;;;;;11.93;6.80;;;;;;;10.94;76.58;97629.63;5027185;28;20224;-71
2021/04/30 05:43:36;;;;;;;10.33;7.00;;;;;;;10.48;78.16;97620.97;5022017;28;20883;-73
2021/04/30 05:46:03;;;;;;;11.30;7.63;;;;;;;11.03;75.28;97614.19;5029734;28;20214;-71
2021/04/30 05:48:29;;;;;;;10.53;6.97;;;;;;;11.09;75.95;97606.16;5030345;28;20571;-72
2021/04/30 05:50:56;;;;;;;11.27;6.77;;;;;;;11.22;74.44;97622.06;5035955;28;20222;-70
2021/04/30 05:53:24;;;;;;;10.20;6.80;;;;;;;11.29;74.85;97622.03;5029808;28;20249;-69
2021/04/30 05:55:51;;;;;;;11.57;7.73;;;;;;;10.96;79.25;97616.88;5026089;28;20214;-72
2021/04/30 05:58:18;;;;;;;13.90;7.90;;;;;;;11.68;73.72;97599.63;5015955;28;20295;-71
2021/04/30 06:00:45;;;;;;;9.83;6.90;;;;;;;10.73;76.73;97599.75;5018859;28;20919;-71
2021/04/30 06:03:11;;;;;;;11.43;7.63;;;;;;;11.12;76.88;97591.53;5016893;28;20249;-71
2021/04/30 06:05:38;;;;;;;10.33;7.47;;;;;;;11.58;73.12;97587.53;5020954;28;20663;-71
2021/04/30 06:08:05;;;;;;;11.53;7.03;;;;;;;11.15;72.02;97599.94;5026446;28;20206;-70
2021/04/30 06:10:33;;;;;;;10.57;7.50;;;;;;;11.14;75.79;97590.31;5022685;28;20242;-70
2021/04/30 06:13:03;;;;;;;10.90;6.93;;;;;;;11.41;72.97;97597.09;5027048;28;20664;-70
2021/04/30 06:15:30;;;;;;;9.97;7.07;;;;;;;10.92;75.97;97598.84;5015320;28;20286;-70
2021/04/30 06:17:57;;;;;;;10.53;7.13;;;;;;;10.94;76.21;97592.25;5022852;28;20663;-71
2021/04/30 06:20:24;;;;;;;13.43;7.40;;;;;;;11.01;78.37;97595.69;5017024;28;20233;-72
2021/04/30 06:22:51;;;;;;;12.13;7.43;;;;;;;11.58;74.42;97587.53;5027403;28;20210;-72
2021/04/30 06:25:18;;;;;;;10.17;6.70;;;;;;;11.44;74.09;97582.50;5027247;28;20205;-69
2021/04/30 06:27:45;;;;;;;12.97;7.53;;;;;;;11.82;71.80;97577.91;5026032;28;20206;-70
2021/04/30 06:30:13;;;;;;;12.47;7.40;;;;;;;11.73;74.23;97573.03;5020243;28;20223;-70
2021/04/30 06:32:42;;;;;;;9.57;6.07;;;;;;;11.60;72.87;97584.66;5017955;28;20217;-71
2021/04/30 06:35:10;;;;;;;13.23;6.33;;;;;;;11.18;74.72;97575.50;5021625;28;20202;-71
2021/04/30 06:37:38;;;;;;;15.37;6.97;;;;;;;11.17;73.04;97589.84;5026220;28;20697;-71
2021/04/30 06:40:05;;;;;;;9.73;6.43;;;;;;;11.23;68.84;97617.56;5021351;28;20226;-70
2021/04/30 06:42:32;;;;;;;9.30;6.47;;;;;;;10.72;69.32;97606.13;5024993;28;20364;-70
2021/04/30 06:45:00;;;;;;;9.43;5.53;;;;;;;10.76;70.56;97600.13;5022735;28;20203;-70
2021/04/30 06:47:28;;;;;;;11.30;6.63;;;;;;;11.22;70.36;97586.56;5019732;28;20670;-71
2021/04/30 06:49:55;;;;;;;9.30;5.87;;;;;;;11.17;69.10;97597.88;5030000;28;20230;-71
2021/04/30 06:52:22;;;;;;;10.50;6.13;;;;;;;10.74;71.83;97606.72;5023696;28;20238;-70
2021/04/30 06:54:49;;;;;;;9.37;6.57;;;;;;;10.84;72.47;97605.25;5025626;28;20210;-70
2021/04/30 06:57:17;;;;;;;8.57;6.23;;;;;;;11.07;71.10;97615.41;5020409;28;20569;-74
2021/04/30 06:59:43;;;;;;;9.67;6.07;;;;;;;10.36;71.87;97614.63;5021462;28;20309;-76
2021/04/30 07:02:11;;;;;;;8.23;5.70;;;;;;;11.18;69.39;97626.25;5026815;28;20571;-70
2021/04/30 07:04:38;;;;;;;8.30;6.00;;;;;;;10.94;71.43;97613.63;5022556;28;20672;-74
2021/04/30 07:07:05;;;;;;;11.47;6.50;;;;;;;11.17;72.07;97607.75;5019547;28;20289;-74
2021/04/30 07:09:32;;;;;;;10.27;6.43;;;;;;;11.09;71.17;97595.47;5021668;28;20207;-72
2021/04/30 07:11:59;;;;;;;11.57;6.23;;;;;;;11.04;71.61;97594.44;5025404;28;20222;-71
2021/04/30 07:14:26;;;;;;;8.60;6.00;;;;;;;11.67;68.77;97592.63;5023284;28;20206;-72
2021/04/30 07:16:53;;;;;;;12.83;6.33;;;;;;;10.99;71.41;97587.09;5025263;28;20869;-71
2021/04/30 07:19:21;;;;;;;8.87;6.17;;;;;;;11.16;73.23;97574.88;5024233;28;20617;-71
2021/04/30 07:22:03;;;;;;;13.77;6.47;;;;;;;11.64;68.94;97574.38;5037527;28;20289;-72
2021/04/30 07:24:30;;;;;;;10.30;6.47;;;;;;;11.77;68.44;97581.22;5039555;28;20285;-71
2021/04/30 07:26:57;;;;;;;11.73;6.93;;;;;;;11.77;70.60;97565.19;5035221;28;20206;-70
2021/04/30 07:29:25;;;;;;;13.03;6.57;;;;;;;11.71;69.80;97570.59;5025718;28;20213;-73
2021/04/30 07:31:55;;;;;;;11.20;6.67;;;;;;;11.69;67.37;97579.88;5020666;28;20267;-75
2021/04/30 07:34:22;;;;;;;8.70;5.53;;;;;;;11.70;66.36;97587.66;5022710;28;20673;-72
2021/04/30 07:36:49;;;;;;;9.63;6.47;;;;;;;11.27;69.04;97579.50;5019399;28;20211;-73
2021/04/30 07:39:16;;;;;;;10.13;6.17;;;;;;;12.03;65.35;97581.00;5025179;28;20299;-74
2021/04/30 07:41:43;;;;;;;8.30;6.23;;;;;;;11.19;71.63;97562.94;5018927;28;20226;-75
2021/04/30 07:44:10;;;;;;;10.53;6.43;;;;;;;11.22;68.94;97567.84;5023102;28;20198;-73
2021/04/30 07:46:37;;;;;;;8.00;5.80;;;;;;;11.83;66.29;97566.19;5020456;28;20567;-72
2021/04/30 07:49:04;;;;;;;8.87;6.27;;;;;;;12.48;63.73;97575.41;5018529;28;20242;-71
2021/04/30 07:51:32;;;;;;;8.97;5.43;;;;;;;11.95;66.07;97569.75;5016402;28;20235;-71
2021/04/30 07:53:59;;;;;;;7.67;5.80;;;;;;;11.90;65.55;97568.81;5025975;28;20202;-71
2021/04/30 07:56:26;;;;;;;7.73;5.80;;;;;;;11.34;68.94;97576.81;5016190;28;20302;-71
2021/04/30 07:58:52;;;;;;;8.33;5.93;;;;;;;11.20;69.32;97573.41;5022194;28;20206;-71
2021/04/30 08:01:20;;;;;;;7.73;6.07;;;;;;;11.55;67.13;97579.94;5024844;28;20221;-70
2021/04/30 08:03:47;;;;;;;11.20;6.03;;;;;;;11.58;65.92;97589.38;5019223;28;20215;-70
2021/04/30 08:06:14;;;;;;;10.80;6.50;;;;;;;11.49;67.80;97578.16;5023301;28;20221;-70
2021/04/30 08:08:41;;;;;;;8.53;6.17;;;;;;;11.66;66.50;97589.16;5019779;28;20207;-70
2021/04/30 08:11:08;;;;;;;10.80;6.50;;;;;;;11.66;66.77;97599.03;5012712;28;20227;-70
2021/04/30 08:13:35;;;;;;;8.97;6.20;;;;;;;11.83;65.63;97607.09;5017872;28;20208;-70
2021/04/30 08:16:02;;;;;;;9.67;6.33;;;;;;;12.18;64.08;97615.44;5019039;28;20211;-70
2021/04/30 08:18:29;;;;;;;9.80;6.40;;;;;;;11.41;67.98;97613.13;5027389;28;20901;-70
2021/04/30 08:20:56;;;;;;;10.93;5.40;;;;;;;10.91;74.43;97599.88;5024723;28;20214;-70
2021/04/30 08:23:23;;;;;;;9.13;5.93;;;;;;;11.29;69.67;97611.38;5022057;28;20202;-70
2021/04/30 08:25:50;;;;;;;10.40;6.33;;;;;;;11.31;70.77;97606.66;5015583;28;20736;-68
2021/04/30 08:28:17;;;;;;;9.77;6.03;;;;;;;11.53;71.49;97595.41;5017105;28;20207;-70
2021/04/30 08:30:44;;;;;;;9.27;5.93;;;;;;;11.29;70.91;97590.00;5021244;28;20239;-70
2021/04/30 08:33:11;;;;;;;11.23;6.17;;;;;;;11.62;70.49;97595.97;5019585;28;20203;-70
2021/04/30 08:35:38;;;;;;;10.50;6.17;;;;;;;11.95;68.22;97596.50;5015960;28;20202;-72
2021/04/30 08:38:05;;;;;;;13.57;6.40;;;;;;;12.00;68.18;97595.88;5021494;28;20219;-70
2021/04/30 08:40:32;;;;;;;11.07;5.73;;;;;;;11.35;72.33;97581.13;5018927;28;20710;-70
2021/04/30 08:43:00;;;;;;;12.37;6.03;;;;;;;11.67;70.50;97585.44;5021790;28;20233;-71
2021/04/30 08:45:28;;;;;;;9.50;5.77;;;;;;;12.06;70.43;97568.22;5018319;28;20209;-69
2021/04/30 08:47:55;;;;;;;8.90;6.50;;;;;;;12.43;67.50;97553.84;5025077;28;20210;-71
2021/04/30 08:50:22;;;;;;;8.87;6.03;;;;;;;12.68;66.30;97548.16;5016314;28;20603;-70
2021/04/30 08:52:49;;;;;;;8.73;6.10;;;;;;;12.25;68.76;97557.31;5020210;28;20636;-71
2021/04/30 08:55:17;;;;;;;10.27;6.53;;;;;;;11.76;71.29;97564.59;5027081;28;20210;-68
2021/04/30 08:57:46;;;;;;;12.70;6.37;;;;;;;12.26;70.90;97561.63;5024370;28;20212;-71
2021/04/30 09:00:15;;;;;;;16.10;6.70;;;;;;;11.45;73.46;97560.91;5016862;28;20226;-68
2021/04/30 09:02:42;;;;;;;8.87;6.57;;;;;;;11.93;72.93;97559.28;5018842;28;20214;-69
2021/04/30 09:05:11;;;;;;;10.43;6.80;;;;;;;12.25;70.98;97569.91;5020633;28;20222;-71
2021/04/30 09:07:42;;;;;;;18.70;6.60;;;;;;;12.52;69.25;97574.72;5023509;28;20239;-70
2021/04/30 09:10:12;;;;;;;12.37;7.20;;;;;;;12.07;71.90;97568.03;5021997;28;20570;-70
2021/04/30 09:12:39;;;;;;;13.23;6.90;;;;;;;11.42;75.83;97573.88;5020418;28;20293;-70
2021/04/30 09:15:08;;;;;;;10.30;6.60;;;;;;;12.02;74.33;97583.06;5011170;28;20667;-70
2021/04/30 09:17:36;;;;;;;9.57;7.00;;;;;;;11.94;75.95;97584.19;5018408;28;20203;-70
2021/04/30 09:20:04;;;;;;;12.63;7.33;;;;;;;11.53;78.47;97579.34;5013658;28;20590;-70
2021/04/30 09:22:34;;;;;;;10.90;7.30;;;;;;;11.45;80.70;97587.63;5019449;28;20231;-69
2021/04/30 09:25:03;;;;;;;12.23;7.40;;;;;;;11.56;80.33;97584.25;5019779;28;20202;-69
2021/04/30 09:27:32;;;;;;;11.90;7.50;;;;;;;11.69;79.81;97585.22;5018713;28;20215;-69
2021/04/30 09:30:19;;;;;;;13.33;8.33;;;;;;;11.66;80.28;97577.63;5024283;28;20229;-69
2021/04/30 09:33:20;;;;;;;11.00;7.50;;;;;;;12.02;79.28;97575.06;5027264;28;20230;-70
2021/04/30 09:35:48;;;;;;;12.17;7.60;;;;;;;12.01;79.08;97566.19;4950061;29;20224;-69
2021/04/30 09:38:20;;;;;;;12.30;7.80;;;;;;;12.06;79.24;97561.00;4951839;28;20252;-69
2021/04/30 09:40:48;;;;;;;10.57;7.87;;;;;;;11.60;81.35;97560.59;4982658;28;20223;-69
2021/04/30 09:43:16;;;;;;;9.47;7.40;;;;;;;11.82;82.18;97560.00;5024610;28;20199;-67
2021/04/30 09:45:45;;;;;;;10.73;7.30;;;;;;;11.98;80.89;97569.34;5021695;28;20282;-75
2021/04/30 09:48:13;;;;;;;13.73;8.20;;;;;;;12.13;79.42;97568.97;5024325;28;20280;-70
2021/04/30 09:50:42;;;;;;;11.40;7.70;;;;;;;11.54;82.47;97561.44;5021387;28;20270;-70
2021/04/30 09:53:10;;;;;;;10.63;7.00;;;;;;;11.55;85.49;97561.25;5027143;28;20281;-69
2021/04/30 09:55:42;;;;;;;13.53;7.73;;;;;;;11.55;83.78;97568.44;5014758;28;20210;-69
2021/04/30 09:58:13;;;;;;;12.93;7.40;;;;;;;11.84;81.49;97567.81;5015499;28;20661;-70
2021/04/30 10:00:40;;;;;;;12.53;7.93;;;;;;;10.84;87.22;97562.53;5024482;28;20227;-69
2021/04/30 10:03:14;;;;;;;12.30;8.07;;;;;;;11.47;84.29;97553.47;5024019;28;20211;-69
2021/04/30 10:06:04;;;;;;;12.00;8.37;;;;;;;10.82;88.99;97553.94;5019231;28;20285;-69
2021/04/30 10:08:31;;;;;;;11.40;7.87;;;;;;;11.54;85.73;97558.78;5023094;28;20218;-69
2021/04/30 10:10:58;;;;;;;13.33;8.53;;;;;;;11.22;87.73;97562.53;5024565;28;20687;-70
2021/04/30 10:13:25;;;;;;;17.57;8.77;;;;;;;10.90;89.68;97564.34;5024094;28;20202;-68
2021/04/30 10:15:52;;;;;;;12.37;7.73;;;;;;;11.39;88.52;97564.44;5022845;28;20217;-69
2021/04/30 10:18:19;;;;;;;12.00;8.30;;;;;;;11.97;84.82;97570.38;5029822;28;20262;-68
2021/04/30 10:20:46;;;;;;;13.27;8.63;;;;;;;11.39;86.27;97569.78;5027295;28;20233;-68
2021/04/30 10:23:20;;;;;;;12.93;8.47;;;;;;;11.02;92.09;97562.63;5029820;28;20203;-68
2021/04/30 10:25:48;;;;;;;11.80;8.33;;;;;;;11.86;85.97;97570.28;5023009;28;20202;-69
2021/04/30 10:28:18;;;;;;;14.27;8.50;;;;;;;12.01;86.06;97570.75;5020503;28;20568;-69
2021/04/30 10:30:50;;;;;;;12.87;8.60;;;;;;;11.47;89.62;97580.19;5020303;28;20227;-69
2021/04/30 10:33:21;;;;;;;13.30;8.87;;;;;;;11.48;92.69;97581.03;5025830;28;20372;-70
2021/04/30 10:35:52;;;;;;;14.60;9.57;;;;;;;11.12;96.16;97587.00;5018387;28;20683;-70
2021/04/30 10:38:22;;;;;;;17.33;9.83;;;;;;;11.22;97.90;97584.69;5026519;28;20199;-70
2021/04/30 10:40:53;;;;;;;16.10;10.20;;;;;;;10.95;100.00;97596.56;5022813;28;20309;-75
2021/04/30 10:43:21;;;;;;;20.07;10.30;;;;;;;11.01;100.00;97600.25;5027534;28;20235;-75
2021/04/30 10:46:08;;;;;;;15.47;10.73;;;;;;;10.70;100.00;97611.66;5017312;28;20263;-70
2021/04/30 10:48:38;;;;;;;16.73;10.23;;;;;;;11.23;100.00;97607.72;5020986;28;20206;-69
2021/04/30 10:51:10;;;;;;;15.20;10.70;;;;;;;11.05;100.00;97607.59;5023521;28;20239;-69
2021/04/30 10:53:38;;;;;;;15.57;11.50;;;;;;;11.08;100.00;97617.88;5021061;28;20257;-72
2021/04/30 10:56:25;;;;;;;18.67;10.80;;;;;;;10.62;100.00;97621.75;5018843;28;20203;-69
2021/04/30 10:58:52;;;;;;;18.90;11.30;;;;;;;10.95;100.00;97625.94;5019627;28;20213;-69
2021/04/30 11:01:24;;;;;;;18.47;11.03;;;;;;;10.93;100.00;97620.00;5021229;28;20292;-68
2021/04/30 11:04:12;;;;;;;18.73;11.43;;;;;;;10.43;100.00;97621.81;5020255;28;20261;-74
2021/04/30 11:06:40;;;;;;;17.83;11.50;;;;;;;10.33;100.00;97631.06;5025011;28;20584;-68
2021/04/30 11:09:12;;;;;;;19.43;12.00;;;;;;;10.13;100.00;97630.28;5021287;28;20209;-68
2021/04/30 11:11:40;;;;;;;18.93;11.07;;;;;;;9.86;100.00;97631.31;5018787;28;20238;-68
2021/04/30 11:14:27;;;;;;;18.87;10.83;;;;;;;9.82;100.00;97637.22;5022734;28;20232;-69
2021/04/30 11:16:55;;;;;;;19.83;10.77;;;;;;;9.78;100.00;97630.66;5020997;28;20249;-70
2021/04/30 11:19:23;;;;;;;22.13;12.37;;;;;;;9.48;100.00;97630.25;5015628;28;20308;-69
2021/04/30 11:21:54;;;;;;;18.47;11.47;;;;;;;9.56;100.00;97637.22;5021211;28;20319;-70
2021/04/30 11:24:36;;;;;;;17.20;10.77;;;;;;;9.33;100.00;97636.78;5024252;28;20200;-69
2021/04/30 11:27:33;;;;;;;16.87;11.03;;;;;;;9.39;100.00;97633.31;5020820;28;20292;-71